| time (UTC) | temp C | wind direction | speed KPH | gust KPH | rain 1hr cm | rain 24hr cm | rain mn cm | humidity % | barometer mb |
| 20260505064604 | 6 | 0 | 1.6 | 6.4 | 0.00 | 0.30 | 0.00 | 89 | 1013.1 |
| 20260505063059 | 6 | 0 | 0.0 | 6.4 | 0.00 | 0.30 | 0.00 | 89 | 1012.9 |
| 20260505061558 | 6 | 0 | 0.0 | 3.2 | 0.00 | 0.30 | 0.00 | 88 | 1012.9 |
| 20260505060104 | 6 | 275 | 1.6 | 9.7 | 0.00 | 0.30 | 0.00 | 88 | 1013.0 |
| 20260505054606 | 6 | 224 | 1.6 | 6.4 | 0.00 | 0.30 | 0.30 | 88 | 1013.0 |
| 20260505053112 | 6 | 265 | 0.0 | 4.8 | 0.03 | 0.30 | 0.30 | 88 | 1012.9 |
| 20260505051558 | 6 | 268 | 0.0 | 4.8 | 0.03 | 0.30 | 0.30 | 88 | 1013.0 |
| 20260505041614 | 6 | 255 | 0.0 | 6.4 | 0.15 | 0.28 | 0.28 | 88 | 1013.5 |
| 20260505040100 | 7 | 273 | 4.8 | 11.3 | 0.20 | 0.28 | 0.28 | 86 | 1013.7 |
| 20260505034610 | 7 | 254 | 1.6 | 9.7 | 0.15 | 0.23 | 0.23 | 87 | 1013.4 |
| 20260505033102 | 7 | 242 | 9.7 | 22.5 | 0.10 | 0.18 | 0.18 | 85 | 1013.6 |
| 20260505031607 | 8 | 305 | 3.2 | 27.4 | 0.05 | 0.13 | 0.13 | 84 | 1013.4 |
| 20260505030100 | 8 | 294 | 4.8 | 20.9 | 0.00 | 0.08 | 0.08 | 78 | 1013.1 |
| 20260505024602 | 9 | 286 | 4.8 | 14.5 | 0.00 | 0.08 | 0.08 | 75 | 1012.7 |
| 20260505023104 | 10 | 349 | 4.8 | 16.1 | 0.00 | 0.08 | 0.08 | 75 | 1012.4 |
| 20260505021601 | 10 | 0 | 0.0 | 0.0 | 0.00 | 0.08 | 0.08 | 78 | 1011.8 |
| 20260505020058 | 10 | 0 | 0.0 | 0.0 | 0.00 | 0.08 | 0.08 | 78 | 1011.7 |
| 20260505014558 | 10 | 0 | 0.0 | 0.0 | 0.03 | 0.08 | 0.08 | 79 | 1011.7 |
| 20260505013103 | 10 | 0 | 1.6 | 9.7 | 0.03 | 0.08 | 0.08 | 73 | 1011.3 |
| 20260505011600 | 10 | 0 | 0.0 | 4.8 | 0.08 | 0.08 | 0.08 | 77 | 1011.6 |
| 20260505010059 | 10 | 0 | 0.0 | 1.6 | 0.08 | 0.08 | 0.08 | 75 | 1011.4 |
| 20260505004559 | 11 | 0 | 0.0 | 1.6 | 0.05 | 0.05 | 0.05 | 80 | 1011.4 |
| 20260505003059 | 11 | 0 | 0.0 | 3.2 | 0.05 | 0.05 | 0.05 | 74 | 1011.9 |
| 20260505001601 | 12 | 116 | 3.2 | 24.1 | 0.00 | 0.00 | 0.00 | 61 | 1012.1 |
| 20260505000109 | 13 | 292 | 6.4 | 16.1 | 0.00 | 0.00 | 0.00 | 45 | 1011.4 |
| 20260504234639 | 14 | 323 | 6.4 | 16.1 | 0.00 | 0.00 | 0.00 | 46 | 1011.2 |
| 20260504233104 | 14 | 342 | 8.0 | 17.7 | 0.00 | 0.00 | 0.00 | 42 | 1010.8 |
| 20260504231605 | 15 | 350 | 6.4 | 20.9 | 0.00 | 0.00 | 0.00 | 42 | 1010.8 |
| 20260504230131 | 16 | 323 | 8.0 | 22.5 | 0.00 | 0.00 | 0.00 | 40 | 1010.7 |
| 20260504224558 | 16 | 353 | 9.7 | 22.5 | 0.00 | 0.00 | 0.00 | 37 | 1010.3 |
| 20260504223058 | 15 | 338 | 9.7 | 22.5 | 0.00 | 0.00 | 0.00 | 44 | 1010.6 |
| 20260504221610 | 16 | 7 | 11.3 | 24.1 | 0.00 | 0.00 | 0.00 | 38 | 1010.3 |
| 20260504220104 | 16 | 258 | 8.0 | 25.7 | 0.00 | 0.00 | 0.00 | 34 | 1010.2 |
| 20260504214610 | 19 | 284 | 4.8 | 12.9 | 0.00 | 0.00 | 0.00 | 26 | 1009.7 |
| 20260504213101 | 21 | 107 | 4.8 | 12.9 | 0.00 | 0.00 | 0.00 | 25 | 1009.2 |
| 20260504211603 | 21 | 85 | 3.2 | 14.5 | 0.00 | 0.00 | 0.00 | 24 | 1009.3 |
| 20260504210111 | 21 | 247 | 4.8 | 19.3 | 0.00 | 0.00 | 0.00 | 25 | 1009.6 |
| 20260504204603 | 21 | 136 | 3.2 | 14.5 | 0.00 | 0.00 | 0.00 | 26 | 1010.0 |
| 20260504203110 | 20 | 95 | 6.4 | 19.3 | 0.00 | 0.00 | 0.00 | 28 | 1010.2 |
| 20260504201602 | 18 | 55 | 4.8 | 17.7 | 0.00 | 0.00 | 0.00 | 31 | 1010.6 |
| 20260504200110 | 17 | 243 | 6.4 | 14.5 | 0.00 | 0.00 | 0.00 | 33 | 1011.1 |
| 20260504194609 | 16 | 14 | 3.2 | 16.1 | 0.00 | 0.00 | 0.00 | 34 | 1010.6 |
| 20260504193100 | 16 | 47 | 3.2 | 9.7 | 0.00 | 0.00 | 0.00 | 34 | 1010.5 |
| 20260504191557 | 16 | 253 | 3.2 | 17.7 | 0.00 | 0.00 | 0.00 | 35 | 1011.2 |
| 20260504190125 | 17 | 130 | 1.6 | 8.0 | 0.00 | 0.00 | 0.00 | 32 | 1011.1 |
| 20260504184600 | 18 | 253 | 3.2 | 8.0 | 0.00 | 0.00 | 0.00 | 26 | 1010.2 |
| 20260504183058 | 19 | 112 | 1.6 | 9.7 | 0.00 | 0.00 | 0.00 | 24 | 1010.0 |
| 20260504181603 | 20 | 45 | 3.2 | 8.0 | 0.00 | 0.00 | 0.00 | 24 | 1009.8 |
| 20260504180150 | 20 | 0 | 1.6 | 17.7 | 0.00 | 0.00 | 0.00 | 22 | 1009.8 |
| 20260504174556 | 21 | 290 | 6.4 | 16.1 | 0.00 | 0.00 | 0.00 | 17 | 1009.9 |
| 20260504173118 | 21 | 95 | 6.4 | 16.1 | 0.00 | 0.00 | 0.00 | 20 | 1010.4 |
| 20260504171557 | 20 | 5 | 8.0 | 24.1 | 0.00 | 0.00 | 0.00 | 20 | 1010.6 |
| 20260504140124 | 15 | 222 | 9.7 | 17.7 | 0.00 | 0.00 | 0.00 | 24 | 1011.6 |
| 20260504120115 | 12 | 265 | 9.7 | 29.0 | 0.00 | 0.00 | 0.00 | 27 | 1010.9 |
| 20260504110108 | 12 | 224 | 6.4 | 17.7 | 0.00 | 0.00 | 0.00 | 28 | 1011.5 |
| 20260504090110 | 9 | 0 | 0.0 | 3.2 | 0.00 | 0.00 | 0.00 | 34 | 1012.1 |
| 20260504081558 | 10 | 243 | 0.0 | 6.4 | 0.00 | 0.00 | 0.00 | 34 | 1012.4 |